Terminal Aerodrome Forecast
Issued by NWS Billings, MT

Home | Current Version | Previous Version | Graphics & Text | Print | Product List | Glossary On
Versions: 1 2 3 4 5 6 7 8 9 10 11 12 13 14 15 16 17 18 19 20 21 22 23 24
000
FTUS45 KBYZ 251738
TAFMLS
TAF
KMLS 251738Z 2518/2618 32010KT P6SM BKN025 OVC040
     FM252000 30010KT P6SM SCT035 BKN200
     FM260300 15007KT P6SM BKN080
     FM260900 29009KT P6SM VCSH BKN060
     FM261500 30012KT P6SM BKN080=

USA.gov is the U.S. government's official web portal to all federal, state and local government web resources and services.